sensor_id;sensor_type;location;lat;lon;timestamp;P1;durP1;ratioP1;P2;durP2;ratioP2
3601;SDS011;1815;50.950;6.920;2022-12-29T00:00:49;1.23;;;0.60;;
3601;SDS011;1815;50.950;6.920;2022-12-29T00:03:15;1.20;;;0.50;;
3601;SDS011;1815;50.950;6.920;2022-12-29T00:05:41;1.33;;;0.60;;
3601;SDS011;1815;50.950;6.920;2022-12-29T00:08:07;1.10;;;0.50;;
3601;SDS011;1815;50.950;6.920;2022-12-29T00:10:32;1.20;;;0.50;;
3601;SDS011;1815;50.950;6.920;2022-12-29T00:12:58;1.10;;;0.50;;
3601;SDS011;1815;50.950;6.920;2022-12-29T00:15:42;1.65;;;0.50;;
3601;SDS011;1815;50.950;6.920;2022-12-29T00:18:08;1.23;;;0.60;;
3601;SDS011;1815;50.950;6.920;2022-12-29T00:20:37;1.10;;;0.50;;
3601;SDS011;1815;50.950;6.920;2022-12-29T00:23:22;1.20;;;0.50;;
3601;SDS011;1815;50.950;6.920;2022-12-29T00:26:16;1.13;;;0.50;;
3601;SDS011;1815;50.950;6.920;2022-12-29T00:29:00;1.33;;;0.50;;
3601;SDS011;1815;50.950;6.920;2022-12-29T00:31:45;1.20;;;0.50;;
3601;SDS011;1815;50.950;6.920;2022-12-29T00:34:29;1.27;;;0.50;;
3601;SDS011;1815;50.950;6.920;2022-12-29T00:37:13;2.03;;;0.60;;
3601;SDS011;1815;50.950;6.920;2022-12-29T00:39:39;1.50;;;0.50;;
3601;SDS011;1815;50.950;6.920;2022-12-29T00:42:24;1.17;;;0.40;;
3601;SDS011;1815;50.950;6.920;2022-12-29T00:45:08;1.30;;;0.40;;
3601;SDS011;1815;50.950;6.920;2022-12-29T00:47:34;1.10;;;0.40;;
3601;SDS011;1815;50.950;6.920;2022-12-29T00:49:59;1.10;;;0.40;;
3601;SDS011;1815;50.950;6.920;2022-12-29T00:52:26;1.10;;;0.50;;
3601;SDS011;1815;50.950;6.920;2022-12-29T00:54:52;1.10;;;0.40;;
3601;SDS011;1815;50.950;6.920;2022-12-29T00:57:18;1.10;;;0.40;;
3601;SDS011;1815;50.950;6.920;2022-12-29T00:59:43;1.20;;;0.40;;
3601;SDS011;1815;50.950;6.920;2022-12-29T01:02:10;1.30;;;0.50;;
3601;SDS011;1815;50.950;6.920;2022-12-29T01:04:36;1.10;;;0.40;;
3601;SDS011;1815;50.950;6.920;2022-12-29T01:07:02;1.10;;;0.47;;
3601;SDS011;1815;50.950;6.920;2022-12-29T01:09:28;1.00;;;0.40;;
3601;SDS011;1815;50.950;6.920;2022-12-29T01:12:12;1.10;;;0.40;;
3601;SDS011;1815;50.950;6.920;2022-12-29T01:14:38;1.10;;;0.40;;
3601;SDS011;1815;50.950;6.920;2022-12-29T01:17:04;1.10;;;0.40;;
3601;SDS011;1815;50.950;6.920;2022-12-29T01:19:31;1.00;;;0.40;;
3601;SDS011;1815;50.950;6.920;2022-12-29T01:21:57;1.00;;;0.40;;
3601;SDS011;1815;50.950;6.920;2022-12-29T01:24:23;1.10;;;0.40;;
3601;SDS011;1815;50.950;6.920;2022-12-29T01:26:50;1.17;;;0.40;;
3601;SDS011;1815;50.950;6.920;2022-12-29T01:29:16;1.00;;;0.40;;
3601;SDS011;1815;50.950;6.920;2022-12-29T01:31:44;1.10;;;0.40;;
3601;SDS011;1815;50.950;6.920;2022-12-29T01:34:10;1.10;;;0.40;;
3601;SDS011;1815;50.950;6.920;2022-12-29T01:36:37;1.00;;;0.40;;
3601;SDS011;1815;50.950;6.920;2022-12-29T01:39:02;1.00;;;0.40;;
3601;SDS011;1815;50.950;6.920;2022-12-29T01:41:28;1.10;;;0.40;;
3601;SDS011;1815;50.950;6.920;2022-12-29T01:43:55;1.10;;;0.40;;
3601;SDS011;1815;50.950;6.920;2022-12-29T01:49:04;1.17;;;0.50;;
3601;SDS011;1815;50.950;6.920;2022-12-29T01:51:43;1.20;;;0.40;;
3601;SDS011;1815;50.950;6.920;2022-12-29T01:54:19;1.10;;;0.40;;
3601;SDS011;1815;50.950;6.920;2022-12-29T01:56:53;1.10;;;0.40;;
3601;SDS011;1815;50.950;6.920;2022-12-29T01:59:24;1.20;;;0.50;;
3601;SDS011;1815;50.950;6.920;2022-12-29T02:01:54;1.40;;;0.50;;
3601;SDS011;1815;50.950;6.920;2022-12-29T02:04:35;1.10;;;0.40;;
3601;SDS011;1815;50.950;6.920;2022-12-29T02:07:10;1.40;;;0.43;;
3601;SDS011;1815;50.950;6.920;2022-12-29T02:09:48;1.27;;;0.40;;
3601;SDS011;1815;50.950;6.920;2022-12-29T02:12:16;1.10;;;0.50;;
3601;SDS011;1815;50.950;6.920;2022-12-29T02:14:44;3.33;;;0.70;;
3601;SDS011;1815;50.950;6.920;2022-12-29T02:17:16;1.30;;;0.50;;
3601;SDS011;1815;50.950;6.920;2022-12-29T02:19:59;1.10;;;0.40;;
3601;SDS011;1815;50.950;6.920;2022-12-29T02:23:51;1.10;;;0.40;;
3601;SDS011;1815;50.950;6.920;2022-12-29T02:28:40;1.40;;;0.50;;
3601;SDS011;1815;50.950;6.920;2022-12-29T02:47:17;1.30;;;0.47;;
3601;SDS011;1815;50.950;6.920;2022-12-29T02:50:07;1.60;;;0.53;;
3601;SDS011;1815;50.950;6.920;2022-12-29T02:52:50;1.30;;;0.50;;
3601;SDS011;1815;50.950;6.920;2022-12-29T02:55:20;1.20;;;0.50;;
3601;SDS011;1815;50.950;6.920;2022-12-29T02:57:45;1.40;;;0.50;;
3601;SDS011;1815;50.950;6.920;2022-12-29T03:00:13;2.10;;;0.50;;
3601;SDS011;1815;50.950;6.920;2022-12-29T03:02:48;1.50;;;0.50;;
3601;SDS011;1815;50.950;6.920;2022-12-29T03:05:26;1.00;;;0.40;;
3601;SDS011;1815;50.950;6.920;2022-12-29T03:10:56;1.50;;;0.50;;
3601;SDS011;1815;50.950;6.920;2022-12-29T03:13:41;1.20;;;0.40;;
3601;SDS011;1815;50.950;6.920;2022-12-29T03:21:37;1.30;;;0.40;;
3601;SDS011;1815;50.950;6.920;2022-12-29T03:24:30;1.20;;;0.40;;
3601;SDS011;1815;50.950;6.920;2022-12-29T03:27:00;1.37;;;0.40;;
3601;SDS011;1815;50.950;6.920;2022-12-29T03:29:36;1.03;;;0.40;;
3601;SDS011;1815;50.950;6.920;2022-12-29T03:32:07;1.10;;;0.40;;
3601;SDS011;1815;50.950;6.920;2022-12-29T03:34:37;1.10;;;0.40;;
3601;SDS011;1815;50.950;6.920;2022-12-29T03:37:11;1.60;;;0.40;;
3601;SDS011;1815;50.950;6.920;2022-12-29T03:39:40;1.10;;;0.40;;
3601;SDS011;1815;50.950;6.920;2022-12-29T03:42:08;1.40;;;0.50;;
3601;SDS011;1815;50.950;6.920;2022-12-29T03:44:37;2.07;;;0.43;;
3601;SDS011;1815;50.950;6.920;2022-12-29T03:47:05;1.40;;;0.40;;
3601;SDS011;1815;50.950;6.920;2022-12-29T03:49:32;1.00;;;0.40;;
3601;SDS011;1815;50.950;6.920;2022-12-29T03:51:58;1.10;;;0.40;;
3601;SDS011;1815;50.950;6.920;2022-12-29T03:54:25;1.10;;;0.40;;
3601;SDS011;1815;50.950;6.920;2022-12-29T03:56:51;1.60;;;0.50;;
3601;SDS011;1815;50.950;6.920;2022-12-29T03:59:26;1.20;;;0.40;;
3601;SDS011;1815;50.950;6.920;2022-12-29T04:01:52;1.00;;;0.40;;
3601;SDS011;1815;50.950;6.920;2022-12-29T04:04:18;1.17;;;0.47;;
3601;SDS011;1815;50.950;6.920;2022-12-29T04:06:43;1.10;;;0.40;;
3601;SDS011;1815;50.950;6.920;2022-12-29T04:09:09;1.00;;;0.40;;
3601;SDS011;1815;50.950;6.920;2022-12-29T04:11:40;1.20;;;0.47;;
3601;SDS011;1815;50.950;6.920;2022-12-29T04:14:06;1.10;;;0.50;;
3601;SDS011;1815;50.950;6.920;2022-12-29T04:16:32;1.87;;;0.50;;
3601;SDS011;1815;50.950;6.920;2022-12-29T04:19:01;1.20;;;0.70;;
3601;SDS011;1815;50.950;6.920;2022-12-29T04:21:28;1.10;;;0.50;;
3601;SDS011;1815;50.950;6.920;2022-12-29T04:23:53;1.10;;;0.40;;
3601;SDS011;1815;50.950;6.920;2022-12-29T04:26:19;1.20;;;0.53;;
3601;SDS011;1815;50.950;6.920;2022-12-29T04:28:53;1.10;;;0.40;;
3601;SDS011;1815;50.950;6.920;2022-12-29T04:31:44;2.17;;;0.60;;
3601;SDS011;1815;50.950;6.920;2022-12-29T04:34:10;1.47;;;0.50;;
3601;SDS011;1815;50.950;6.920;2022-12-29T04:36:37;1.33;;;0.40;;
3601;SDS011;1815;50.950;6.920;2022-12-29T04:39:04;1.30;;;0.50;;
3601;SDS011;1815;50.950;6.920;2022-12-29T04:41:32;2.50;;;0.50;;
3601;SDS011;1815;50.950;6.920;2022-12-29T04:43:58;1.10;;;0.50;;
3601;SDS011;1815;50.950;6.920;2022-12-29T04:46:42;2.10;;;0.50;;
3601;SDS011;1815;50.950;6.920;2022-12-29T04:49:21;1.93;;;0.50;;
3601;SDS011;1815;50.950;6.920;2022-12-29T04:51:53;2.43;;;0.77;;
3601;SDS011;1815;50.950;6.920;2022-12-29T04:54:19;1.70;;;0.57;;
3601;SDS011;1815;50.950;6.920;2022-12-29T04:56:53;3.87;;;0.60;;
3601;SDS011;1815;50.950;6.920;2022-12-29T04:59:18;1.40;;;0.60;;
3601;SDS011;1815;50.950;6.920;2022-12-29T05:01:47;1.73;;;0.50;;
3601;SDS011;1815;50.950;6.920;2022-12-29T05:04:13;1.00;;;0.40;;
3601;SDS011;1815;50.950;6.920;2022-12-29T05:06:40;1.30;;;0.50;;
3601;SDS011;1815;50.950;6.920;2022-12-29T05:09:06;1.20;;;0.50;;
3601;SDS011;1815;50.950;6.920;2022-12-29T05:11:33;1.30;;;0.50;;
3601;SDS011;1815;50.950;6.920;2022-12-29T05:14:00;1.10;;;0.50;;
3601;SDS011;1815;50.950;6.920;2022-12-29T05:16:26;2.17;;;0.40;;
3601;SDS011;1815;50.950;6.920;2022-12-29T05:18:52;1.50;;;0.50;;
3601;SDS011;1815;50.950;6.920;2022-12-29T05:21:18;1.10;;;0.40;;
3601;SDS011;1815;50.950;6.920;2022-12-29T05:23:44;2.43;;;0.47;;
3601;SDS011;1815;50.950;6.920;2022-12-29T05:26:10;1.50;;;0.50;;
3601;SDS011;1815;50.950;6.920;2022-12-29T05:28:47;1.87;;;0.47;;
3601;SDS011;1815;50.950;6.920;2022-12-29T05:31:17;1.13;;;0.40;;
3601;SDS011;1815;50.950;6.920;2022-12-29T05:33:43;1.43;;;0.53;;
3601;SDS011;1815;50.950;6.920;2022-12-29T05:36:09;1.07;;;0.40;;
3601;SDS011;1815;50.950;6.920;2022-12-29T05:38:37;1.20;;;0.40;;
3601;SDS011;1815;50.950;6.920;2022-12-29T05:41:03;1.60;;;0.50;;
3601;SDS011;1815;50.950;6.920;2022-12-29T05:43:49;1.30;;;0.40;;
3601;SDS011;1815;50.950;6.920;2022-12-29T05:46:27;1.10;;;0.50;;
3601;SDS011;1815;50.950;6.920;2022-12-29T05:49:11;1.10;;;0.50;;
3601;SDS011;1815;50.950;6.920;2022-12-29T05:51:51;1.10;;;0.40;;
3601;SDS011;1815;50.950;6.920;2022-12-29T05:54:17;1.20;;;0.47;;
3601;SDS011;1815;50.950;6.920;2022-12-29T05:56:42;1.40;;;0.40;;
3601;SDS011;1815;50.950;6.920;2022-12-29T05:59:09;1.17;;;0.40;;
3601;SDS011;1815;50.950;6.920;2022-12-29T06:01:35;1.30;;;0.60;;
3601;SDS011;1815;50.950;6.920;2022-12-29T06:04:01;1.10;;;0.50;;
3601;SDS011;1815;50.950;6.920;2022-12-29T06:06:27;1.30;;;0.50;;
3601;SDS011;1815;50.950;6.920;2022-12-29T06:08:53;1.30;;;0.40;;
3601;SDS011;1815;50.950;6.920;2022-12-29T06:11:19;1.30;;;0.60;;
3601;SDS011;1815;50.950;6.920;2022-12-29T06:13:51;1.77;;;0.93;;
3601;SDS011;1815;50.950;6.920;2022-12-29T06:16:17;5.57;;;0.50;;
3601;SDS011;1815;50.950;6.920;2022-12-29T06:18:43;2.60;;;0.50;;
3601;SDS011;1815;50.950;6.920;2022-12-29T06:21:09;1.10;;;0.50;;
3601;SDS011;1815;50.950;6.920;2022-12-29T06:23:35;1.30;;;0.50;;
3601;SDS011;1815;50.950;6.920;2022-12-29T06:26:02;1.80;;;0.50;;
3601;SDS011;1815;50.950;6.920;2022-12-29T06:28:28;1.07;;;0.40;;
3601;SDS011;1815;50.950;6.920;2022-12-29T06:30:54;1.60;;;0.50;;
3601;SDS011;1815;50.950;6.920;2022-12-29T06:33:20;1.60;;;0.40;;
3601;SDS011;1815;50.950;6.920;2022-12-29T06:35:46;1.10;;;0.40;;
3601;SDS011;1815;50.950;6.920;2022-12-29T06:38:13;1.00;;;0.40;;
3601;SDS011;1815;50.950;6.920;2022-12-29T06:40:39;2.17;;;0.40;;
3601;SDS011;1815;50.950;6.920;2022-12-29T06:43:27;1.20;;;0.50;;
3601;SDS011;1815;50.950;6.920;2022-12-29T06:46:22;1.93;;;0.50;;
3601;SDS011;1815;50.950;6.920;2022-12-29T06:48:48;1.40;;;0.60;;
3601;SDS011;1815;50.950;6.920;2022-12-29T06:51:13;1.20;;;0.43;;
3601;SDS011;1815;50.950;6.920;2022-12-29T06:53:39;1.00;;;0.40;;
3601;SDS011;1815;50.950;6.920;2022-12-29T06:56:05;1.10;;;0.40;;
3601;SDS011;1815;50.950;6.920;2022-12-29T06:58:31;1.87;;;0.50;;
3601;SDS011;1815;50.950;6.920;2022-12-29T07:00:57;1.07;;;0.40;;
3601;SDS011;1815;50.950;6.920;2022-12-29T07:03:23;1.20;;;0.40;;
3601;SDS011;1815;50.950;6.920;2022-12-29T07:05:49;1.20;;;0.50;;
3601;SDS011;1815;50.950;6.920;2022-12-29T07:08:15;1.10;;;0.40;;
3601;SDS011;1815;50.950;6.920;2022-12-29T07:10:40;1.20;;;0.50;;
3601;SDS011;1815;50.950;6.920;2022-12-29T07:13:06;1.97;;;0.50;;
3601;SDS011;1815;50.950;6.920;2022-12-29T07:15:33;1.13;;;0.40;;
3601;SDS011;1815;50.950;6.920;2022-12-29T07:17:59;1.30;;;0.50;;
3601;SDS011;1815;50.950;6.920;2022-12-29T07:20:25;1.50;;;0.50;;
3601;SDS011;1815;50.950;6.920;2022-12-29T07:22:50;1.33;;;0.40;;
3601;SDS011;1815;50.950;6.920;2022-12-29T07:25:16;1.50;;;0.50;;
3601;SDS011;1815;50.950;6.920;2022-12-29T07:27:42;1.20;;;0.40;;
3601;SDS011;1815;50.950;6.920;2022-12-29T07:30:08;1.67;;;0.50;;
3601;SDS011;1815;50.950;6.920;2022-12-29T07:32:34;1.40;;;0.50;;
3601;SDS011;1815;50.950;6.920;2022-12-29T07:35:00;1.40;;;0.50;;
3601;SDS011;1815;50.950;6.920;2022-12-29T07:37:26;2.03;;;0.50;;
3601;SDS011;1815;50.950;6.920;2022-12-29T07:39:52;1.50;;;0.40;;
3601;SDS011;1815;50.950;6.920;2022-12-29T07:42:18;1.30;;;0.50;;
3601;SDS011;1815;50.950;6.920;2022-12-29T07:44:49;1.77;;;0.50;;
3601;SDS011;1815;50.950;6.920;2022-12-29T07:47:18;1.33;;;0.40;;
3601;SDS011;1815;50.950;6.920;2022-12-29T07:49:44;2.30;;;1.43;;
3601;SDS011;1815;50.950;6.920;2022-12-29T07:52:09;2.07;;;0.70;;
3601;SDS011;1815;50.950;6.920;2022-12-29T07:54:35;1.53;;;0.60;;
3601;SDS011;1815;50.950;6.920;2022-12-29T07:57:01;1.67;;;0.50;;
3601;SDS011;1815;50.950;6.920;2022-12-29T07:59:26;1.67;;;0.60;;
3601;SDS011;1815;50.950;6.920;2022-12-29T08:01:52;1.90;;;0.60;;
3601;SDS011;1815;50.950;6.920;2022-12-29T08:04:18;3.67;;;0.60;;
3601;SDS011;1815;50.950;6.920;2022-12-29T08:06:44;2.43;;;0.60;;
3601;SDS011;1815;50.950;6.920;2022-12-29T08:09:10;2.60;;;0.60;;
3601;SDS011;1815;50.950;6.920;2022-12-29T08:11:36;1.40;;;0.50;;
3601;SDS011;1815;50.950;6.920;2022-12-29T08:14:02;1.67;;;0.60;;
3601;SDS011;1815;50.950;6.920;2022-12-29T08:16:28;4.30;;;0.60;;
3601;SDS011;1815;50.950;6.920;2022-12-29T08:18:54;4.50;;;0.60;;
3601;SDS011;1815;50.950;6.920;2022-12-29T08:21:19;1.87;;;0.70;;
3601;SDS011;1815;50.950;6.920;2022-12-29T08:23:45;3.93;;;0.60;;
3601;SDS011;1815;50.950;6.920;2022-12-29T08:26:12;2.10;;;0.63;;
3601;SDS011;1815;50.950;6.920;2022-12-29T08:28:38;4.17;;;0.80;;
3601;SDS011;1815;50.950;6.920;2022-12-29T08:31:03;1.53;;;0.50;;
3601;SDS011;1815;50.950;6.920;2022-12-29T08:33:29;2.93;;;0.70;;
3601;SDS011;1815;50.950;6.920;2022-12-29T08:36:00;1.87;;;0.53;;
3601;SDS011;1815;50.950;6.920;2022-12-29T08:38:28;1.43;;;0.50;;
3601;SDS011;1815;50.950;6.920;2022-12-29T08:40:54;2.33;;;0.60;;
3601;SDS011;1815;50.950;6.920;2022-12-29T08:43:20;2.67;;;0.70;;
3601;SDS011;1815;50.950;6.920;2022-12-29T08:45:46;2.60;;;0.60;;
3601;SDS011;1815;50.950;6.920;2022-12-29T08:48:12;2.13;;;0.70;;
3601;SDS011;1815;50.950;6.920;2022-12-29T08:50:37;3.40;;;0.70;;
3601;SDS011;1815;50.950;6.920;2022-12-29T08:53:03;2.93;;;0.67;;
3601;SDS011;1815;50.950;6.920;2022-12-29T08:55:29;1.70;;;0.57;;
3601;SDS011;1815;50.950;6.920;2022-12-29T08:57:55;2.80;;;0.60;;
3601;SDS011;1815;50.950;6.920;2022-12-29T09:00:22;3.20;;;0.60;;
3601;SDS011;1815;50.950;6.920;2022-12-29T09:02:50;3.10;;;0.70;;
3601;SDS011;1815;50.950;6.920;2022-12-29T09:05:16;3.57;;;0.60;;
3601;SDS011;1815;50.950;6.920;2022-12-29T09:07:42;2.37;;;0.60;;
3601;SDS011;1815;50.950;6.920;2022-12-29T09:10:08;3.37;;;0.70;;
3601;SDS011;1815;50.950;6.920;2022-12-29T09:12:33;1.93;;;0.70;;
3601;SDS011;1815;50.950;6.920;2022-12-29T09:14:59;1.77;;;0.60;;
3601;SDS011;1815;50.950;6.920;2022-12-29T09:17:26;2.50;;;0.70;;
3601;SDS011;1815;50.950;6.920;2022-12-29T09:20:15;1.67;;;0.60;;
3601;SDS011;1815;50.950;6.920;2022-12-29T09:22:42;2.97;;;0.70;;
3601;SDS011;1815;50.950;6.920;2022-12-29T09:25:08;5.77;;;0.90;;
3601;SDS011;1815;50.950;6.920;2022-12-29T09:27:34;4.23;;;0.70;;
3601;SDS011;1815;50.950;6.920;2022-12-29T09:30:01;6.47;;;1.07;;
3601;SDS011;1815;50.950;6.920;2022-12-29T09:32:28;3.83;;;0.80;;
3601;SDS011;1815;50.950;6.920;2022-12-29T09:34:54;4.67;;;0.90;;
3601;SDS011;1815;50.950;6.920;2022-12-29T09:37:20;4.33;;;1.17;;
3601;SDS011;1815;50.950;6.920;2022-12-29T09:39:46;3.70;;;1.10;;
3601;SDS011;1815;50.950;6.920;2022-12-29T09:42:14;3.50;;;1.00;;
3601;SDS011;1815;50.950;6.920;2022-12-29T09:47:43;2.83;;;0.80;;
3601;SDS011;1815;50.950;6.920;2022-12-29T09:50:15;2.70;;;0.63;;
3601;SDS011;1815;50.950;6.920;2022-12-29T09:52:44;2.80;;;0.70;;
3601;SDS011;1815;50.950;6.920;2022-12-29T09:55:26;3.00;;;0.70;;
3601;SDS011;1815;50.950;6.920;2022-12-29T09:58:14;4.03;;;0.90;;
3601;SDS011;1815;50.950;6.920;2022-12-29T10:00:52;3.33;;;0.80;;
3601;SDS011;1815;50.950;6.920;2022-12-29T10:03:24;5.63;;;0.70;;
3601;SDS011;1815;50.950;6.920;2022-12-29T10:06:10;2.50;;;0.90;;
3601;SDS011;1815;50.950;6.920;2022-12-29T10:17:06;2.20;;;0.70;;
3601;SDS011;1815;50.950;6.920;2022-12-29T10:24:53;2.77;;;0.70;;
3601;SDS011;1815;50.950;6.920;2022-12-29T10:27:21;10.13;;;1.63;;
3601;SDS011;1815;50.950;6.920;2022-12-29T10:29:51;4.17;;;0.77;;
3601;SDS011;1815;50.950;6.920;2022-12-29T10:35:01;2.60;;;0.60;;
3601;SDS011;1815;50.950;6.920;2022-12-29T10:40:23;4.07;;;0.60;;
3601;SDS011;1815;50.950;6.920;2022-12-29T10:43:27;3.03;;;0.60;;
3601;SDS011;1815;50.950;6.920;2022-12-29T10:45:56;2.93;;;0.60;;
3601;SDS011;1815;50.950;6.920;2022-12-29T10:48:28;4.13;;;0.90;;
3601;SDS011;1815;50.950;6.920;2022-12-29T10:50:57;3.50;;;0.70;;
3601;SDS011;1815;50.950;6.920;2022-12-29T10:53:26;1.93;;;0.60;;
3601;SDS011;1815;50.950;6.920;2022-12-29T10:55:58;1.97;;;0.60;;
3601;SDS011;1815;50.950;6.920;2022-12-29T10:58:26;2.97;;;0.70;;
3601;SDS011;1815;50.950;6.920;2022-12-29T11:00:54;3.43;;;0.70;;
3601;SDS011;1815;50.950;6.920;2022-12-29T11:08:40;2.70;;;1.00;;
3601;SDS011;1815;50.950;6.920;2022-12-29T11:11:37;3.20;;;1.20;;
3601;SDS011;1815;50.950;6.920;2022-12-29T11:14:19;2.90;;;1.13;;
3601;SDS011;1815;50.950;6.920;2022-12-29T11:17:00;3.20;;;1.30;;
3601;SDS011;1815;50.950;6.920;2022-12-29T11:19:32;4.20;;;0.80;;
3601;SDS011;1815;50.950;6.920;2022-12-29T11:24:46;2.30;;;0.90;;
3601;SDS011;1815;50.950;6.920;2022-12-29T11:27:14;2.90;;;0.80;;
3601;SDS011;1815;50.950;6.920;2022-12-29T11:29:51;2.57;;;0.70;;
3601;SDS011;1815;50.950;6.920;2022-12-29T11:32:21;5.97;;;0.80;;
3601;SDS011;1815;50.950;6.920;2022-12-29T11:34:49;3.83;;;0.80;;
3601;SDS011;1815;50.950;6.920;2022-12-29T11:37:16;4.17;;;0.70;;
3601;SDS011;1815;50.950;6.920;2022-12-29T11:39:54;3.83;;;0.87;;
3601;SDS011;1815;50.950;6.920;2022-12-29T11:45:13;3.53;;;0.80;;
3601;SDS011;1815;50.950;6.920;2022-12-29T11:47:48;3.67;;;0.80;;
3601;SDS011;1815;50.950;6.920;2022-12-29T11:50:37;3.73;;;1.20;;
3601;SDS011;1815;50.950;6.920;2022-12-29T11:53:17;3.13;;;0.97;;
3601;SDS011;1815;50.950;6.920;2022-12-29T11:55:53;7.20;;;1.50;;
3601;SDS011;1815;50.950;6.920;2022-12-29T11:58:27;5.03;;;1.50;;
3601;SDS011;1815;50.950;6.920;2022-12-29T12:00:57;5.37;;;0.87;;
3601;SDS011;1815;50.950;6.920;2022-12-29T12:03:29;3.97;;;1.10;;
3601;SDS011;1815;50.950;6.920;2022-12-29T12:05:58;2.00;;;0.67;;
3601;SDS011;1815;50.950;6.920;2022-12-29T12:08:42;2.73;;;0.90;;
3601;SDS011;1815;50.950;6.920;2022-12-29T12:11:15;2.33;;;0.90;;
3601;SDS011;1815;50.950;6.920;2022-12-29T12:17:18;8.30;;;3.50;;
3601;SDS011;1815;50.950;6.920;2022-12-29T12:19:51;4.40;;;2.10;;
3601;SDS011;1815;50.950;6.920;2022-12-29T12:27:43;2.50;;;0.90;;
3601;SDS011;1815;50.950;6.920;2022-12-29T12:30:23;3.87;;;1.00;;
3601;SDS011;1815;50.950;6.920;2022-12-29T12:35:43;4.07;;;0.80;;
3601;SDS011;1815;50.950;6.920;2022-12-29T12:44:00;5.83;;;2.03;;
3601;SDS011;1815;50.950;6.920;2022-12-29T12:46:39;3.60;;;1.43;;
3601;SDS011;1815;50.950;6.920;2022-12-29T13:00:26;2.80;;;1.40;;
3601;SDS011;1815;50.950;6.920;2022-12-29T13:03:04;4.60;;;1.10;;
3601;SDS011;1815;50.950;6.920;2022-12-29T13:11:28;6.23;;;3.03;;
3601;SDS011;1815;50.950;6.920;2022-12-29T13:17:03;4.80;;;2.00;;
3601;SDS011;1815;50.950;6.920;2022-12-29T13:19:32;4.90;;;1.20;;
3601;SDS011;1815;50.950;6.920;2022-12-29T13:22:29;3.73;;;1.10;;
3601;SDS011;1815;50.950;6.920;2022-12-29T13:25:31;8.90;;;2.77;;
3601;SDS011;1815;50.950;6.920;2022-12-29T13:28:25;8.57;;;3.00;;
3601;SDS011;1815;50.950;6.920;2022-12-29T13:31:12;15.43;;;7.50;;
3601;SDS011;1815;50.950;6.920;2022-12-29T13:36:32;12.77;;;7.50;;
3601;SDS011;1815;50.950;6.920;2022-12-29T13:39:13;22.37;;;12.03;;
3601;SDS011;1815;50.950;6.920;2022-12-29T13:41:53;33.93;;;13.50;;
3601;SDS011;1815;50.950;6.920;2022-12-29T13:44:22;19.27;;;8.90;;
3601;SDS011;1815;50.950;6.920;2022-12-29T13:46:51;14.80;;;5.87;;
3601;SDS011;1815;50.950;6.920;2022-12-29T13:49:19;8.97;;;4.03;;
3601;SDS011;1815;50.950;6.920;2022-12-29T13:51:48;6.60;;;3.17;;
3601;SDS011;1815;50.950;6.920;2022-12-29T14:07:45;6.20;;;2.57;;
3601;SDS011;1815;50.950;6.920;2022-12-29T14:10:32;6.13;;;1.60;;
3601;SDS011;1815;50.950;6.920;2022-12-29T14:13:04;4.03;;;1.60;;
3601;SDS011;1815;50.950;6.920;2022-12-29T14:15:32;5.17;;;1.30;;
3601;SDS011;1815;50.950;6.920;2022-12-29T14:18:02;5.40;;;1.33;;
3601;SDS011;1815;50.950;6.920;2022-12-29T14:20:34;2.40;;;0.77;;
3601;SDS011;1815;50.950;6.920;2022-12-29T14:30:52;3.53;;;0.70;;
3601;SDS011;1815;50.950;6.920;2022-12-29T14:33:20;3.70;;;0.80;;
3601;SDS011;1815;50.950;6.920;2022-12-29T14:35:47;3.03;;;0.60;;
3601;SDS011;1815;50.950;6.920;2022-12-29T14:38:18;3.03;;;0.90;;
3601;SDS011;1815;50.950;6.920;2022-12-29T14:40:46;2.70;;;0.70;;
3601;SDS011;1815;50.950;6.920;2022-12-29T14:43:20;2.77;;;0.93;;
3601;SDS011;1815;50.950;6.920;2022-12-29T14:45:58;2.03;;;0.60;;
3601;SDS011;1815;50.950;6.920;2022-12-29T14:48:34;1.93;;;0.70;;
3601;SDS011;1815;50.950;6.920;2022-12-29T14:51:15;2.57;;;0.87;;
3601;SDS011;1815;50.950;6.920;2022-12-29T14:53:45;2.80;;;0.80;;
3601;SDS011;1815;50.950;6.920;2022-12-29T14:56:15;4.70;;;0.80;;
3601;SDS011;1815;50.950;6.920;2022-12-29T14:58:59;5.90;;;0.87;;
3601;SDS011;1815;50.950;6.920;2022-12-29T15:01:39;4.63;;;0.80;;
3601;SDS011;1815;50.950;6.920;2022-12-29T15:04:23;4.50;;;0.80;;
3601;SDS011;1815;50.950;6.920;2022-12-29T15:06:55;2.80;;;0.80;;
3601;SDS011;1815;50.950;6.920;2022-12-29T15:09:32;3.80;;;0.67;;
3601;SDS011;1815;50.950;6.920;2022-12-29T15:15:37;2.63;;;0.80;;
3601;SDS011;1815;50.950;6.920;2022-12-29T15:20:50;3.43;;;0.80;;
3601;SDS011;1815;50.950;6.920;2022-12-29T15:23:19;1.97;;;0.73;;
3601;SDS011;1815;50.950;6.920;2022-12-29T15:25:49;4.07;;;1.00;;
3601;SDS011;1815;50.950;6.920;2022-12-29T15:28:19;3.10;;;1.10;;
3601;SDS011;1815;50.950;6.920;2022-12-29T15:30:56;3.33;;;0.67;;
3601;SDS011;1815;50.950;6.920;2022-12-29T15:33:28;4.32;;;0.90;;
3601;SDS011;1815;50.950;6.920;2022-12-29T15:35:55;3.65;;;0.80;;
3601;SDS011;1815;50.950;6.920;2022-12-29T15:38:26;3.50;;;0.80;;
3601;SDS011;1815;50.950;6.920;2022-12-29T15:40:54;4.07;;;1.25;;
3601;SDS011;1815;50.950;6.920;2022-12-29T15:46:00;2.20;;;0.70;;
3601;SDS011;1815;50.950;6.920;2022-12-29T15:48:27;4.10;;;0.90;;
3601;SDS011;1815;50.950;6.920;2022-12-29T15:50:53;4.10;;;0.80;;
3601;SDS011;1815;50.950;6.920;2022-12-29T15:53:23;3.13;;;1.03;;
3601;SDS011;1815;50.950;6.920;2022-12-29T15:55:54;5.50;;;1.25;;
3601;SDS011;1815;50.950;6.920;2022-12-29T15:58:44;3.10;;;1.30;;
3601;SDS011;1815;50.950;6.920;2022-12-29T16:01:32;3.42;;;1.08;;
3601;SDS011;1815;50.950;6.920;2022-12-29T16:04:04;3.60;;;0.80;;
3601;SDS011;1815;50.950;6.920;2022-12-29T16:06:36;3.60;;;0.70;;
3601;SDS011;1815;50.950;6.920;2022-12-29T16:09:13;2.70;;;0.75;;
3601;SDS011;1815;50.950;6.920;2022-12-29T16:11:45;5.72;;;1.08;;
3601;SDS011;1815;50.950;6.920;2022-12-29T16:14:16;8.20;;;0.95;;
3601;SDS011;1815;50.950;6.920;2022-12-29T16:16:44;6.45;;;1.13;;
3601;SDS011;1815;50.950;6.920;2022-12-29T16:19:14;3.05;;;1.13;;
3601;SDS011;1815;50.950;6.920;2022-12-29T16:21:54;4.43;;;0.80;;
3601;SDS011;1815;50.950;6.920;2022-12-29T16:24:23;3.28;;;1.00;;
3601;SDS011;1815;50.950;6.920;2022-12-29T16:27:02;4.38;;;0.70;;
3601;SDS011;1815;50.950;6.920;2022-12-29T16:29:31;3.53;;;0.75;;
3601;SDS011;1815;50.950;6.920;2022-12-29T16:31:58;4.70;;;1.00;;
3601;SDS011;1815;50.950;6.920;2022-12-29T16:34:29;3.38;;;1.05;;
3601;SDS011;1815;50.950;6.920;2022-12-29T16:42:46;2.58;;;0.75;;
3601;SDS011;1815;50.950;6.920;2022-12-29T16:50:34;4.13;;;1.00;;
3601;SDS011;1815;50.950;6.920;2022-12-29T16:53:02;3.10;;;1.33;;
3601;SDS011;1815;50.950;6.920;2022-12-29T16:55:30;2.65;;;1.13;;
3601;SDS011;1815;50.950;6.920;2022-12-29T16:57:57;3.85;;;1.13;;
3601;SDS011;1815;50.950;6.920;2022-12-29T17:00:25;6.10;;;1.00;;
3601;SDS011;1815;50.950;6.920;2022-12-29T17:02:54;3.70;;;0.90;;
3601;SDS011;1815;50.950;6.920;2022-12-29T17:05:26;3.22;;;1.10;;
3601;SDS011;1815;50.950;6.920;2022-12-29T17:07:52;3.63;;;1.20;;
3601;SDS011;1815;50.950;6.920;2022-12-29T17:10:18;6.80;;;1.10;;
3601;SDS011;1815;50.950;6.920;2022-12-29T17:12:44;3.23;;;0.90;;
3601;SDS011;1815;50.950;6.920;2022-12-29T17:15:24;3.80;;;1.08;;
3601;SDS011;1815;50.950;6.920;2022-12-29T17:17:52;5.95;;;0.90;;
3601;SDS011;1815;50.950;6.920;2022-12-29T17:20:21;2.75;;;1.00;;
3601;SDS011;1815;50.950;6.920;2022-12-29T17:22:52;5.20;;;1.10;;
3601;SDS011;1815;50.950;6.920;2022-12-29T17:25:19;2.15;;;0.70;;
3601;SDS011;1815;50.950;6.920;2022-12-29T17:27:57;3.17;;;0.88;;
3601;SDS011;1815;50.950;6.920;2022-12-29T17:30:27;3.38;;;0.95;;
3601;SDS011;1815;50.950;6.920;2022-12-29T17:32:57;2.60;;;0.90;;
3601;SDS011;1815;50.950;6.920;2022-12-29T17:35:29;3.95;;;1.30;;
3601;SDS011;1815;50.950;6.920;2022-12-29T17:37:55;6.13;;;1.03;;
3601;SDS011;1815;50.950;6.920;2022-12-29T17:40:26;3.70;;;1.07;;
3601;SDS011;1815;50.950;6.920;2022-12-29T17:42:54;3.80;;;1.02;;
3601;SDS011;1815;50.950;6.920;2022-12-29T17:45:23;6.18;;;0.90;;
3601;SDS011;1815;50.950;6.920;2022-12-29T17:47:53;2.30;;;1.42;;
3601;SDS011;1815;50.950;6.920;2022-12-29T17:50:20;3.72;;;1.23;;
3601;SDS011;1815;50.950;6.920;2022-12-29T17:52:51;5.78;;;1.27;;
3601;SDS011;1815;50.950;6.920;2022-12-29T17:55:19;4.05;;;1.25;;
3601;SDS011;1815;50.950;6.920;2022-12-29T17:57:46;3.75;;;1.10;;
3601;SDS011;1815;50.950;6.920;2022-12-29T18:00:16;8.35;;;1.20;;
3601;SDS011;1815;50.950;6.920;2022-12-29T18:02:47;5.90;;;1.15;;